Time,TemperatureF,DewpointF,PressureIn,WindDirection,WindDirectionDegrees,WindSpeedMPH,WindSpeedGustMPH,Humidity,HourlyPrecipIn,Conditions,Clouds,dailyrainin,SoftwareType,DateUTC
2013-05-25 00:02:00,51.0,32.0,-100.00,South,189,7.0,9.0,49,0.00,,,-99.99,,2013-05-25 06:02:00,
2013-05-25 00:12:00,50.0,33.0,-100.00,SSW,196,7.0,10.0,54,0.00,,,-99.99,,2013-05-25 06:12:00,
2013-05-25 00:21:00,51.0,39.0,-100.00,South,186,11.0,13.0,64,0.00,,,-99.99,,2013-05-25 06:21:00,
2013-05-25 00:32:00,51.0,39.0,-100.00,South,184,11.0,13.0,62,0.00,,,-99.99,,2013-05-25 06:32:00,
2013-05-25 00:42:00,50.0,37.0,-100.00,SSW,198,7.0,10.0,61,0.00,,,-99.99,,2013-05-25 06:42:00,
2013-05-25 00:52:00,50.0,37.0,-100.00,SSW,209,7.0,10.0,61,0.00,,,-99.99,,2013-05-25 06:52:00,
2013-05-25 01:01:00,51.0,40.0,-100.00,SW,215,7.0,9.0,65,0.00,,,-99.99,,2013-05-25 07:01:00,
2013-05-25 01:11:00,51.0,40.0,-100.00,SSW,212,7.0,9.0,67,0.00,,,-99.99,,2013-05-25 07:11:00,
2013-05-25 01:21:00,51.0,40.0,-100.00,SW,219,6.0,8.0,66,0.00,,,-99.99,,2013-05-25 07:21:00,
2013-05-25 01:32:00,50.0,39.0,-100.00,SW,230,6.0,7.0,66,0.00,,,-99.99,,2013-05-25 07:32:00,
2013-05-25 01:42:00,50.0,39.0,-100.00,WSW,239,6.0,7.0,65,0.00,,,-99.99,,2013-05-25 07:42:00,
2013-05-25 01:52:00,48.0,39.0,-100.00,WSW,243,7.0,8.0,71,0.00,,,-99.99,,2013-05-25 07:52:00,
2013-05-25 02:02:00,50.0,40.0,-100.00,WSW,244,6.0,7.0,68,0.00,,,-99.99,,2013-05-25 08:02:00,
2013-05-25 02:11:00,50.0,40.0,-100.00,WSW,241,6.0,7.0,69,0.00,,,-99.99,,2013-05-25 08:11:00,
2013-05-25 02:22:00,51.0,40.0,-100.00,SW,234,5.0,7.0,65,0.00,,,-99.99,,2013-05-25 08:22:00,
2013-05-25 02:32:00,51.0,39.0,-100.00,SW,224,6.0,7.0,64,0.00,,,-99.99,,2013-05-25 08:32:00,
2013-05-25 02:42:00,51.0,40.0,-100.00,SW,216,4.0,6.0,64,0.00,,,-99.99,,2013-05-25 08:42:00,
2013-05-25 02:51:00,49.0,39.0,-100.00,South,178,5.0,6.0,67,0.00,,,-99.99,,2013-05-25 08:51:00,
2013-05-25 03:02:00,48.0,38.0,-100.00,SSE,168,5.0,8.0,68,0.00,,,-99.99,,2013-05-25 09:02:00,
2013-05-25 03:11:00,46.0,36.0,-100.00,SSW,199,2.0,4.0,70,0.00,,,-99.99,,2013-05-25 09:11:00,
2013-05-25 03:21:00,45.0,37.0,-100.00,South,175,1.0,4.0,75,0.00,,,-99.99,,2013-05-25 09:21:00,
2013-05-25 03:33:00,46.0,36.0,-100.00,SW,219,2.0,4.0,69,0.00,,,-99.99,,2013-05-25 09:33:00,
2013-05-25 03:42:00,44.0,36.0,-100.00,WSW,254,2.0,4.0,75,0.00,,,-99.99,,2013-05-25 09:42:00,
2013-05-25 03:52:00,45.0,36.0,-100.00,SSW,212,4.0,6.0,69,0.00,,,-99.99,,2013-05-25 09:52:00,
2013-05-25 04:02:00,42.0,35.0,-100.00,SSE,164,1.0,4.0,76,0.00,,,-99.99,,2013-05-25 10:02:00,
2013-05-25 04:12:00,42.0,35.0,-100.00,WSW,247,1.0,2.0,74,0.00,,,-99.99,,2013-05-25 10:12:00,
2013-05-25 04:22:00,44.0,31.0,-100.00,SSW,198,2.0,5.0,59,0.00,,,-99.99,,2013-05-25 10:22:00,
2013-05-25 04:33:00,42.0,28.0,-100.00,SSE,150,1.0,4.0,58,0.00,,,-99.99,,2013-05-25 10:33:00,
2013-05-25 04:42:00,42.0,29.0,-100.00,ESE,121,2.0,7.0,60,0.00,,,-99.99,,2013-05-25 10:42:00,
2013-05-25 04:52:00,42.0,28.0,-100.00,SE,133,2.0,3.0,59,0.00,,,-99.99,,2013-05-25 10:52:00,
2013-05-25 05:02:00,43.0,27.0,-100.00,SE,133,1.0,4.0,51,0.00,,,-99.99,,2013-05-25 11:02:00,
2013-05-25 05:12:00,44.0,27.0,-100.00,SW,219,1.0,2.0,52,0.00,,,-99.99,,2013-05-25 11:12:00,
2013-05-25 05:21:00,44.0,26.0,-100.00,WSW,253,2.0,4.0,50,0.00,,,-99.99,,2013-05-25 11:21:00,
2013-05-25 05:32:00,45.0,24.0,-100.00,West,277,4.0,7.0,44,0.00,,,-99.99,,2013-05-25 11:32:00,
2013-05-25 05:41:00,45.0,22.0,-100.00,WSW,258,3.0,8.0,40,0.00,,,-99.99,,2013-05-25 11:41:00,
2013-05-25 05:52:00,47.0,20.0,-100.00,SW,217,11.0,14.0,34,0.00,,,-99.99,,2013-05-25 11:52:00,
2013-05-25 06:01:00,47.0,20.0,-100.00,SW,220,14.0,16.0,34,0.00,,,-99.99,,2013-05-25 12:01:00,
2013-05-25 06:12:00,47.0,19.0,-100.00,SW,222,14.0,16.0,33,0.00,,,-99.99,,2013-05-25 12:12:00,
2013-05-25 06:22:00,49.0,19.0,-100.00,SW,217,15.0,17.0,30,0.00,,,-99.99,,2013-05-25 12:22:00,
2013-05-25 06:32:00,49.0,20.0,-100.00,SSW,212,11.0,14.0,32,0.00,,,-99.99,,2013-05-25 12:32:00,
2013-05-25 06:42:00,51.0,20.0,-100.00,SSW,210,13.0,16.0,29,0.00,,,-99.99,,2013-05-25 12:42:00,
2013-05-25 06:52:00,49.0,22.0,-100.00,SSW,200,11.0,14.0,33,0.00,,,-99.99,,2013-05-25 12:52:00,
2013-05-25 07:02:00,53.0,21.0,-100.00,SSW,208,9.0,14.0,28,0.00,,,-99.99,,2013-05-25 13:02:00,
2013-05-25 07:11:00,53.0,20.0,-100.00,SSW,212,13.0,16.0,28,0.00,,,-99.99,,2013-05-25 13:11:00,
2013-05-25 07:21:00,55.0,20.0,-100.00,SSW,212,12.0,16.0,26,0.00,,,-99.99,,2013-05-25 13:21:00,
2013-05-25 07:32:00,55.0,22.0,-100.00,SSW,212,12.0,16.0,28,0.00,,,-99.99,,2013-05-25 13:32:00,
2013-05-25 07:42:00,57.0,21.0,-100.00,SSW,210,11.0,14.0,25,0.00,,,-99.99,,2013-05-25 13:42:00,
2013-05-25 07:52:00,58.0,23.0,-100.00,SSW,212,11.0,14.0,26,0.00,,,-99.99,,2013-05-25 13:52:00,
2013-05-25 08:02:00,59.0,19.0,-100.00,SSW,209,12.0,17.0,21,0.00,,,-99.99,,2013-05-25 14:02:00,
2013-05-25 08:11:00,60.0,18.0,-100.00,SSW,210,13.0,17.0,20,0.00,,,-99.99,,2013-05-25 14:11:00,
2013-05-25 08:22:00,61.0,20.0,-100.00,SSW,206,12.0,16.0,21,0.00,,,-99.99,,2013-05-25 14:22:00,
2013-05-25 08:32:00,62.0,20.0,-100.00,SSW,200,13.0,17.0,19,0.00,,,-99.99,,2013-05-25 14:32:00,
2013-05-25 08:42:00,63.0,19.0,-100.00,SSW,200,15.0,18.0,18,0.00,,,-99.99,,2013-05-25 14:42:00,
2013-05-25 08:52:00,63.0,19.0,-100.00,SSW,200,14.0,19.0,18,0.00,,,-99.99,,2013-05-25 14:52:00,
2013-05-25 09:01:00,64.0,16.0,-100.00,SSW,200,13.0,16.0,16,0.00,,,-99.99,,2013-05-25 15:01:00,
2013-05-25 09:11:00,64.0,17.0,-100.00,SSW,200,12.0,16.0,15,0.00,,,-99.99,,2013-05-25 15:11:00,
2013-05-25 09:22:00,65.0,16.0,-100.00,SSW,200,12.0,17.0,15,0.00,,,-99.99,,2013-05-25 15:22:00,
2013-05-25 09:33:00,65.0,17.0,-100.00,SSW,200,14.0,18.0,15,0.00,,,-99.99,,2013-05-25 15:33:00,
2013-05-25 09:43:00,65.0,18.0,-100.00,SSW,200,14.0,19.0,16,0.00,,,-99.99,,2013-05-25 15:43:00,
2013-05-25 09:53:00,65.0,17.0,-100.00,SSW,199,13.0,19.0,15,0.00,,,-99.99,,2013-05-25 15:53:00,
2013-05-25 10:03:00,66.0,17.0,-100.00,SSW,200,13.0,18.0,15,0.00,,,-99.99,,2013-05-25 16:03:00,
2013-05-25 10:12:00,67.0,19.0,-100.00,SSW,200,12.0,18.0,16,0.00,,,-99.99,,2013-05-25 16:12:00,
2013-05-25 10:23:00,66.0,18.0,-100.00,SSW,200,11.0,19.0,16,0.00,,,-99.99,,2013-05-25 16:23:00,
2013-05-25 10:32:00,66.0,18.0,-100.00,SSW,200,12.0,18.0,16,0.00,,,-99.99,,2013-05-25 16:32:00,
2013-05-25 10:42:00,67.0,18.0,-100.00,SSW,200,12.0,19.0,15,0.00,,,-99.99,,2013-05-25 16:42:00,
2013-05-25 10:52:00,67.0,17.0,-100.00,SSW,200,12.0,18.0,15,0.00,,,-99.99,,2013-05-25 16:52:00,
2013-05-25 11:02:00,68.0,15.0,-100.00,SSW,200,11.0,19.0,13,0.00,,,-99.99,,2013-05-25 17:02:00,
2013-05-25 11:11:00,68.0,18.0,-100.00,SSW,200,10.0,17.0,15,0.00,,,-99.99,,2013-05-25 17:11:00,
2013-05-25 11:22:00,69.0,14.0,-100.00,SSW,200,13.0,20.0,12,0.00,,,-99.99,,2013-05-25 17:22:00,
2013-05-25 11:32:00,69.0,14.0,-100.00,SSW,200,16.0,27.0,12,0.00,,,-99.99,,2013-05-25 17:32:00,
2013-05-25 11:42:00,70.0,14.0,-100.00,SSW,200,12.0,19.0,11,0.00,,,-99.99,,2013-05-25 17:42:00,
2013-05-25 11:52:00,69.0,16.0,-100.00,SSW,200,16.0,27.0,13,0.00,,,-99.99,,2013-05-25 17:52:00,
2013-05-25 12:01:00,70.0,15.0,-100.00,SSW,200,11.0,17.0,12,0.00,,,-99.99,,2013-05-25 18:01:00,
2013-05-25 12:11:00,70.0,16.0,-100.00,SSW,200,11.0,19.0,13,0.00,,,-99.99,,2013-05-25 18:11:00,
2013-05-25 12:21:00,71.0,16.0,-100.00,SSW,200,14.0,22.0,12,0.00,,,-99.99,,2013-05-25 18:21:00,
2013-05-25 12:32:00,70.0,14.0,-100.00,SSW,200,15.0,24.0,12,0.00,,,-99.99,,2013-05-25 18:32:00,
2013-05-25 12:42:00,71.0,15.0,-100.00,SSW,200,16.0,23.0,11,0.00,,,-99.99,,2013-05-25 18:42:00,
2013-05-25 12:52:00,71.0,13.0,-100.00,SSW,200,12.0,21.0,11,0.00,,,-99.99,,2013-05-25 18:52:00,
2013-05-25 13:01:00,71.0,15.0,-100.00,SSW,199,16.0,28.0,11,0.00,,,-99.99,,2013-05-25 19:01:00,
2013-05-25 13:11:00,71.0,14.0,-100.00,SSW,200,15.0,28.0,11,0.00,,,-99.99,,2013-05-25 19:11:00,
2013-05-25 13:21:00,71.0,15.0,-100.00,SSW,200,10.0,17.0,12,0.00,,,-99.99,,2013-05-25 19:21:00,
2013-05-25 13:32:00,71.0,13.0,-100.00,SSW,200,19.0,27.0,11,0.00,,,-99.99,,2013-05-25 19:32:00,
2013-05-25 13:42:00,72.0,14.0,-100.00,SSW,200,21.0,31.0,11,0.00,,,-99.99,,2013-05-25 19:42:00,
2013-05-25 13:52:00,72.0,13.0,-100.00,SSW,200,17.0,27.0,10,0.00,,,-99.99,,2013-05-25 19:52:00,
2013-05-25 14:02:00,72.0,12.0,-100.00,SSW,200,17.0,27.0,10,0.00,,,-99.99,,2013-05-25 20:02:00,
2013-05-25 14:11:00,72.0,14.0,-100.00,SSW,200,19.0,33.0,11,0.00,,,-99.99,,2013-05-25 20:11:00,
2013-05-25 14:21:00,72.0,13.0,-100.00,SSW,200,19.0,31.0,10,0.00,,,-99.99,,2013-05-25 20:21:00,
2013-05-25 14:32:00,73.0,13.0,-100.00,SSW,200,15.0,27.0,10,0.00,,,-99.99,,2013-05-25 20:32:00,
2013-05-25 14:42:00,72.0,13.0,-100.00,SSW,200,17.0,29.0,10,0.00,,,-99.99,,2013-05-25 20:42:00,
2013-05-25 14:52:00,74.0,14.0,-100.00,SSW,200,24.0,31.0,10,0.00,,,-99.99,,2013-05-25 20:52:00,
2013-05-25 15:02:00,73.0,13.0,-100.00,SSW,200,20.0,29.0,10,0.00,,,-99.99,,2013-05-25 21:02:00,
2013-05-25 15:11:00,72.0,14.0,-100.00,SSW,200,19.0,27.0,11,0.00,,,-99.99,,2013-05-25 21:11:00,
2013-05-25 15:21:00,72.0,15.0,-100.00,SSW,200,18.0,38.0,11,0.00,,,-99.99,,2013-05-25 21:21:00,
2013-05-25 15:33:00,71.0,15.0,-100.00,SSW,200,16.0,28.0,11,0.00,,,-99.99,,2013-05-25 21:33:00,
2013-05-25 15:43:00,73.0,15.0,-100.00,SSW,200,16.0,30.0,11,0.00,,,-99.99,,2013-05-25 21:43:00,
2013-05-25 15:53:00,74.0,16.0,-100.00,SSW,200,14.0,28.0,11,0.00,,,-99.99,,2013-05-25 21:53:00,
2013-05-25 16:03:00,73.0,17.0,-100.00,SSW,200,17.0,26.0,12,0.00,,,-99.99,,2013-05-25 22:03:00,
2013-05-25 16:12:00,73.0,16.0,-100.00,SSW,200,19.0,30.0,11,0.00,,,-99.99,,2013-05-25 22:12:00,
2013-05-25 16:22:00,72.0,14.0,-100.00,SSW,200,15.0,26.0,11,0.00,,,-99.99,,2013-05-25 22:22:00,
2013-05-25 16:32:00,73.0,14.0,-100.00,SSW,200,17.0,26.0,10,0.00,,,-99.99,,2013-05-25 22:32:00,
2013-05-25 16:42:00,73.0,15.0,-100.00,SSW,200,16.0,24.0,11,0.00,,,-99.99,,2013-05-25 22:42:00,
2013-05-25 16:52:00,73.0,14.0,-100.00,SSW,200,17.0,23.0,10,0.00,,,-99.99,,2013-05-25 22:52:00,
2013-05-25 17:02:00,73.0,15.0,-100.00,SSW,200,19.0,24.0,11,0.00,,,-99.99,,2013-05-25 23:02:00,
2013-05-25 17:12:00,73.0,14.0,-100.00,SSW,200,17.0,26.0,10,0.00,,,-99.99,,2013-05-25 23:12:00,
2013-05-25 17:22:00,73.0,11.0,-100.00,SSW,200,22.0,30.0,9,0.00,,,-99.99,,2013-05-25 23:22:00,
2013-05-25 17:32:00,73.0,13.0,-100.00,SSW,200,21.0,32.0,10,0.00,,,-99.99,,2013-05-25 23:32:00,
2013-05-25 17:42:00,73.0,13.0,-100.00,SSW,200,19.0,27.0,10,0.00,,,-99.99,,2013-05-25 23:42:00,
2013-05-25 17:52:00,73.0,12.0,-100.00,SSW,200,18.0,26.0,9,0.00,,,-99.99,,2013-05-25 23:52:00,
2013-05-25 18:01:00,72.0,14.0,-100.00,SSW,200,17.0,23.0,10,0.00,,,-99.99,,2013-05-26 00:01:00,
2013-05-25 18:11:00,72.0,13.0,-100.00,SSW,199,16.0,23.0,10,0.00,,,-99.99,,2013-05-26 00:11:00,
2013-05-25 18:21:00,72.0,14.0,-100.00,SSW,200,13.0,21.0,11,0.00,,,-99.99,,2013-05-26 00:21:00,
2013-05-25 18:31:00,73.0,14.0,-100.00,SSW,199,17.0,26.0,10,0.00,,,-99.99,,2013-05-26 00:31:00,
2013-05-25 18:42:00,72.0,14.0,-100.00,SSW,200,18.0,26.0,11,0.00,,,-99.99,,2013-05-26 00:42:00,
2013-05-25 18:52:00,72.0,13.0,-100.00,SSW,200,19.0,24.0,10,0.00,,,-99.99,,2013-05-26 00:52:00,
2013-05-25 19:01:00,72.0,14.0,-100.00,SSW,199,14.0,22.0,11,0.00,,,-99.99,,2013-05-26 01:01:00,
2013-05-25 19:11:00,71.0,14.0,-100.00,SSW,200,14.0,21.0,11,0.00,,,-99.99,,2013-05-26 01:11:00,
2013-05-25 19:21:00,71.0,16.0,-100.00,SSW,200,11.0,15.0,12,0.00,,,-99.99,,2013-05-26 01:21:00,
2013-05-25 19:32:00,70.0,17.0,-100.00,SSW,200,12.0,19.0,13,0.00,,,-99.99,,2013-05-26 01:32:00,
2013-05-25 19:42:00,70.0,16.0,-100.00,SSW,200,9.0,14.0,13,0.00,,,-99.99,,2013-05-26 01:42:00,
2013-05-25 19:52:00,69.0,16.0,-100.00,SSW,200,12.0,17.0,13,0.00,,,-99.99,,2013-05-26 01:52:00,
2013-05-25 20:02:00,68.0,16.0,-100.00,SSW,200,11.0,13.0,13,0.00,,,-99.99,,2013-05-26 02:02:00,
2013-05-25 20:11:00,67.0,15.0,-100.00,SSW,200,9.0,13.0,13,0.00,,,-99.99,,2013-05-26 02:11:00,
2013-05-25 20:21:00,66.0,15.0,-100.00,SSW,200,10.0,13.0,14,0.00,,,-99.99,,2013-05-26 02:21:00,
2013-05-25 20:32:00,64.0,16.0,-100.00,SSW,200,10.0,12.0,15,0.00,,,-99.99,,2013-05-26 02:32:00,
2013-05-25 20:41:00,61.0,18.0,-100.00,SSW,200,8.0,11.0,19,0.00,,,-99.99,,2013-05-26 02:41:00,
2013-05-25 20:52:00,58.0,19.0,-100.00,SSW,200,8.0,10.0,21,0.00,,,-99.99,,2013-05-26 02:52:00,
2013-05-25 21:01:00,57.0,19.0,-100.00,SSW,200,7.0,10.0,22,0.00,,,-99.99,,2013-05-26 03:01:00,
2013-05-25 21:11:00,57.0,19.0,-100.00,SSW,200,6.0,9.0,22,0.00,,,-99.99,,2013-05-26 03:11:00,
2013-05-25 21:21:00,58.0,18.0,-100.00,SSW,200,9.0,11.0,21,0.00,,,-99.99,,2013-05-26 03:21:00,
2013-05-25 21:33:00,57.0,19.0,-100.00,SSW,200,8.0,11.0,23,0.00,,,-99.99,,2013-05-26 03:33:00,
2013-05-25 21:42:00,56.0,19.0,-100.00,SSW,200,7.0,11.0,23,0.00,,,-99.99,,2013-05-26 03:42:00,
2013-05-25 21:53:00,58.0,17.0,-100.00,SSW,200,9.0,13.0,19,0.00,,,-99.99,,2013-05-26 03:53:00,
2013-05-25 22:02:00,58.0,18.0,-100.00,SSW,200,10.0,12.0,21,0.00,,,-99.99,,2013-05-26 04:02:00,
2013-05-25 22:12:00,55.0,18.0,-100.00,SSW,200,9.0,11.0,23,0.00,,,-99.99,,2013-05-26 04:12:00,
2013-05-25 22:23:00,56.0,18.0,-100.00,SSW,200,9.0,12.0,22,0.00,,,-99.99,,2013-05-26 04:23:00,
2013-05-25 22:33:00,57.0,17.0,-100.00,SSW,200,8.0,12.0,21,0.00,,,-99.99,,2013-05-26 04:33:00,
2013-05-25 22:42:00,57.0,17.0,-100.00,SSW,200,11.0,15.0,21,0.00,,,-99.99,,2013-05-26 04:42:00,
2013-05-25 22:52:00,57.0,16.0,-100.00,SW,219,12.0,16.0,20,0.00,,,-99.99,,2013-05-26 04:52:00,
2013-05-25 23:02:00,58.0,17.0,-100.00,SW,232,14.0,16.0,20,0.00,,,-99.99,,2013-05-26 05:02:00,
2013-05-25 23:12:00,58.0,17.0,-100.00,SW,232,14.0,17.0,20,0.00,,,-99.99,,2013-05-26 05:12:00,
2013-05-25 23:22:00,58.0,16.0,-100.00,SW,233,14.0,17.0,19,0.00,,,-99.99,,2013-05-26 05:22:00,
2013-05-25 23:32:00,57.0,17.0,-100.00,SW,233,14.0,17.0,21,0.00,,,-99.99,,2013-05-26 05:32:00,
2013-05-25 23:42:00,57.0,17.0,-100.00,WSW,243,13.0,16.0,20,0.00,,,-99.99,,2013-05-26 05:42:00,
2013-05-25 23:52:00,57.0,17.0,-100.00,WSW,248,14.0,16.0,20,0.00,,,-99.99,,2013-05-26 05:52:00,